sensor_id;sensor_type;location;lat;lon;timestamp;temperature;humidity
9752;DHT22;4915;51.226;5.966;2022-09-09T00:01:41;14.50;99.90
9752;DHT22;4915;51.226;5.966;2022-09-09T00:04:16;14.60;99.90
9752;DHT22;4915;51.226;5.966;2022-09-09T00:06:53;14.60;99.90
9752;DHT22;4915;51.226;5.966;2022-09-09T00:09:25;14.50;99.90
9752;DHT22;4915;51.226;5.966;2022-09-09T00:11:58;14.50;99.90
9752;DHT22;4915;51.226;5.966;2022-09-09T00:14:36;14.50;99.90
9752;DHT22;4915;51.226;5.966;2022-09-09T00:17:11;14.40;99.90
9752;DHT22;4915;51.226;5.966;2022-09-09T00:19:43;14.40;99.90
9752;DHT22;4915;51.226;5.966;2022-09-09T00:22:16;14.30;99.90
9752;DHT22;4915;51.226;5.966;2022-09-09T00:24:46;14.40;99.90
9752;DHT22;4915;51.226;5.966;2022-09-09T00:27:25;14.50;99.90
9752;DHT22;4915;51.226;5.966;2022-09-09T00:29:56;14.40;99.90
9752;DHT22;4915;51.226;5.966;2022-09-09T00:32:29;14.40;99.90
9752;DHT22;4915;51.226;5.966;2022-09-09T00:35:00;14.30;99.90
9752;DHT22;4915;51.226;5.966;2022-09-09T00:37:29;14.30;99.90
9752;DHT22;4915;51.226;5.966;2022-09-09T00:40:05;14.30;99.90
9752;DHT22;4915;51.226;5.966;2022-09-09T00:42:42;14.40;99.90
9752;DHT22;4915;51.226;5.966;2022-09-09T00:45:33;14.40;99.90
9752;DHT22;4915;51.226;5.966;2022-09-09T00:48:04;14.30;99.90
9752;DHT22;4915;51.226;5.966;2022-09-09T00:50:45;14.20;99.90
9752;DHT22;4915;51.226;5.966;2022-09-09T00:53:31;14.30;99.90
9752;DHT22;4915;51.226;5.966;2022-09-09T00:56:11;14.20;99.90
9752;DHT22;4915;51.226;5.966;2022-09-09T00:58:42;14.20;99.90
9752;DHT22;4915;51.226;5.966;2022-09-09T01:01:11;14.30;99.90
9752;DHT22;4915;51.226;5.966;2022-09-09T01:03:43;14.40;99.90
9752;DHT22;4915;51.226;5.966;2022-09-09T01:06:16;14.40;99.90
9752;DHT22;4915;51.226;5.966;2022-09-09T01:09:04;14.30;99.90
9752;DHT22;4915;51.226;5.966;2022-09-09T01:11:38;14.30;99.90
9752;DHT22;4915;51.226;5.966;2022-09-09T01:14:16;14.40;99.90
9752;DHT22;4915;51.226;5.966;2022-09-09T01:16:48;14.40;99.90
9752;DHT22;4915;51.226;5.966;2022-09-09T01:19:23;14.40;99.90
9752;DHT22;4915;51.226;5.966;2022-09-09T01:21:59;14.40;99.90
9752;DHT22;4915;51.226;5.966;2022-09-09T01:24:34;14.50;99.90
9752;DHT22;4915;51.226;5.966;2022-09-09T01:27:06;14.50;99.90
9752;DHT22;4915;51.226;5.966;2022-09-09T01:29:33;14.60;99.90
9752;DHT22;4915;51.226;5.966;2022-09-09T01:32:01;14.60;99.90
9752;DHT22;4915;51.226;5.966;2022-09-09T01:34:33;14.60;99.90
9752;DHT22;4915;51.226;5.966;2022-09-09T01:37:03;14.60;99.90
9752;DHT22;4915;51.226;5.966;2022-09-09T01:39:32;14.60;99.90
9752;DHT22;4915;51.226;5.966;2022-09-09T01:41:59;14.60;99.90
9752;DHT22;4915;51.226;5.966;2022-09-09T01:44:30;14.50;99.90
9752;DHT22;4915;51.226;5.966;2022-09-09T01:46:57;14.40;99.90
9752;DHT22;4915;51.226;5.966;2022-09-09T01:49:24;14.40;99.90
9752;DHT22;4915;51.226;5.966;2022-09-09T01:51:53;14.50;99.90
9752;DHT22;4915;51.226;5.966;2022-09-09T01:54:21;14.60;99.90
9752;DHT22;4915;51.226;5.966;2022-09-09T01:56:57;14.50;99.90
9752;DHT22;4915;51.226;5.966;2022-09-09T01:59:48;14.60;99.90
9752;DHT22;4915;51.226;5.966;2022-09-09T02:02:19;14.60;99.90
9752;DHT22;4915;51.226;5.966;2022-09-09T02:04:50;14.70;99.90
9752;DHT22;4915;51.226;5.966;2022-09-09T02:07:30;14.70;99.90
9752;DHT22;4915;51.226;5.966;2022-09-09T02:10:08;14.60;99.90
9752;DHT22;4915;51.226;5.966;2022-09-09T02:12:40;14.60;99.90
9752;DHT22;4915;51.226;5.966;2022-09-09T02:15:17;14.60;99.90
9752;DHT22;4915;51.226;5.966;2022-09-09T02:17:49;14.70;99.90
9752;DHT22;4915;51.226;5.966;2022-09-09T02:20:18;14.70;99.90
9752;DHT22;4915;51.226;5.966;2022-09-09T02:22:48;14.80;99.90
9752;DHT22;4915;51.226;5.966;2022-09-09T02:25:19;14.70;99.90
9752;DHT22;4915;51.226;5.966;2022-09-09T02:27:49;14.70;99.90
9752;DHT22;4915;51.226;5.966;2022-09-09T02:30:19;14.70;99.90
9752;DHT22;4915;51.226;5.966;2022-09-09T02:32:48;14.70;99.90
9752;DHT22;4915;51.226;5.966;2022-09-09T02:35:19;14.70;99.90
9752;DHT22;4915;51.226;5.966;2022-09-09T02:37:49;14.70;99.90
9752;DHT22;4915;51.226;5.966;2022-09-09T02:40:17;14.70;99.90
9752;DHT22;4915;51.226;5.966;2022-09-09T02:42:47;14.70;99.90
9752;DHT22;4915;51.226;5.966;2022-09-09T02:45:17;14.80;99.90
9752;DHT22;4915;51.226;5.966;2022-09-09T02:47:51;14.70;99.90
9752;DHT22;4915;51.226;5.966;2022-09-09T02:50:23;14.70;99.90
9752;DHT22;4915;51.226;5.966;2022-09-09T02:52:59;14.70;99.90
9752;DHT22;4915;51.226;5.966;2022-09-09T02:55:37;14.70;99.90
9752;DHT22;4915;51.226;5.966;2022-09-09T02:58:05;14.80;99.90
9752;DHT22;4915;51.226;5.966;2022-09-09T03:00:34;14.80;99.90
9752;DHT22;4915;51.226;5.966;2022-09-09T03:03:04;14.70;99.90
9752;DHT22;4915;51.226;5.966;2022-09-09T03:05:31;14.80;99.90
9752;DHT22;4915;51.226;5.966;2022-09-09T03:07:58;14.80;99.90
9752;DHT22;4915;51.226;5.966;2022-09-09T03:10:25;14.80;99.90
9752;DHT22;4915;51.226;5.966;2022-09-09T03:12:53;14.80;99.90
9752;DHT22;4915;51.226;5.966;2022-09-09T03:15:21;14.90;99.90
9752;DHT22;4915;51.226;5.966;2022-09-09T03:17:48;14.80;99.90
9752;DHT22;4915;51.226;5.966;2022-09-09T03:20:16;14.80;99.90
9752;DHT22;4915;51.226;5.966;2022-09-09T03:22:43;14.80;99.90
9752;DHT22;4915;51.226;5.966;2022-09-09T03:25:11;14.90;99.90
9752;DHT22;4915;51.226;5.966;2022-09-09T03:27:38;14.90;99.90
9752;DHT22;4915;51.226;5.966;2022-09-09T03:30:06;14.80;99.90
9752;DHT22;4915;51.226;5.966;2022-09-09T03:32:33;14.80;99.90
9752;DHT22;4915;51.226;5.966;2022-09-09T03:35:00;14.80;99.90
9752;DHT22;4915;51.226;5.966;2022-09-09T03:37:29;14.80;99.90
9752;DHT22;4915;51.226;5.966;2022-09-09T03:39:57;14.80;99.90
9752;DHT22;4915;51.226;5.966;2022-09-09T03:42:25;14.90;99.90
9752;DHT22;4915;51.226;5.966;2022-09-09T03:44:52;14.90;99.90
9752;DHT22;4915;51.226;5.966;2022-09-09T03:47:21;15.00;99.90
9752;DHT22;4915;51.226;5.966;2022-09-09T03:49:48;15.10;99.90
9752;DHT22;4915;51.226;5.966;2022-09-09T03:52:16;15.20;99.90
9752;DHT22;4915;51.226;5.966;2022-09-09T03:54:45;15.10;99.90
9752;DHT22;4915;51.226;5.966;2022-09-09T03:57:12;15.00;99.90
9752;DHT22;4915;51.226;5.966;2022-09-09T03:59:42;15.10;99.90
9752;DHT22;4915;51.226;5.966;2022-09-09T04:02:09;15.00;99.90
9752;DHT22;4915;51.226;5.966;2022-09-09T04:04:36;15.00;99.90
9752;DHT22;4915;51.226;5.966;2022-09-09T04:07:03;15.00;99.90
9752;DHT22;4915;51.226;5.966;2022-09-09T04:09:32;14.90;99.90
9752;DHT22;4915;51.226;5.966;2022-09-09T04:12:02;14.90;99.90
9752;DHT22;4915;51.226;5.966;2022-09-09T04:14:29;15.00;99.90
9752;DHT22;4915;51.226;5.966;2022-09-09T04:16:57;15.00;99.90
9752;DHT22;4915;51.226;5.966;2022-09-09T04:19:25;15.10;99.90
9752;DHT22;4915;51.226;5.966;2022-09-09T04:21:52;15.10;99.90
9752;DHT22;4915;51.226;5.966;2022-09-09T04:24:19;15.20;99.90
9752;DHT22;4915;51.226;5.966;2022-09-09T04:26:47;15.30;99.90
9752;DHT22;4915;51.226;5.966;2022-09-09T04:29:16;15.30;99.90
9752;DHT22;4915;51.226;5.966;2022-09-09T04:31:43;15.40;99.90
9752;DHT22;4915;51.226;5.966;2022-09-09T04:34:10;15.50;99.90
9752;DHT22;4915;51.226;5.966;2022-09-09T04:36:37;15.60;99.90
9752;DHT22;4915;51.226;5.966;2022-09-09T04:39:04;15.50;99.90
9752;DHT22;4915;51.226;5.966;2022-09-09T04:41:32;15.50;99.90
9752;DHT22;4915;51.226;5.966;2022-09-09T04:43:59;15.60;99.90
9752;DHT22;4915;51.226;5.966;2022-09-09T04:46:27;15.60;99.90
9752;DHT22;4915;51.226;5.966;2022-09-09T04:48:54;15.60;99.90
9752;DHT22;4915;51.226;5.966;2022-09-09T04:51:22;15.60;99.90
9752;DHT22;4915;51.226;5.966;2022-09-09T04:53:49;15.60;99.90
9752;DHT22;4915;51.226;5.966;2022-09-09T04:56:17;15.70;99.90
9752;DHT22;4915;51.226;5.966;2022-09-09T04:58:45;15.60;99.90
9752;DHT22;4915;51.226;5.966;2022-09-09T05:01:14;15.60;99.90
9752;DHT22;4915;51.226;5.966;2022-09-09T05:03:43;15.60;99.90
9752;DHT22;4915;51.226;5.966;2022-09-09T05:06:12;15.60;99.90
9752;DHT22;4915;51.226;5.966;2022-09-09T05:08:40;15.60;99.90
9752;DHT22;4915;51.226;5.966;2022-09-09T05:11:14;15.60;99.90
9752;DHT22;4915;51.226;5.966;2022-09-09T05:13:42;15.50;99.90
9752;DHT22;4915;51.226;5.966;2022-09-09T05:16:09;15.50;99.90
9752;DHT22;4915;51.226;5.966;2022-09-09T05:18:37;15.50;99.90
9752;DHT22;4915;51.226;5.966;2022-09-09T05:21:06;15.50;99.90
9752;DHT22;4915;51.226;5.966;2022-09-09T05:23:34;15.50;99.90
9752;DHT22;4915;51.226;5.966;2022-09-09T05:26:02;15.50;99.90
9752;DHT22;4915;51.226;5.966;2022-09-09T05:28:29;15.50;99.90
9752;DHT22;4915;51.226;5.966;2022-09-09T05:30:57;15.60;99.90
9752;DHT22;4915;51.226;5.966;2022-09-09T05:33:26;15.50;99.90
9752;DHT22;4915;51.226;5.966;2022-09-09T05:35:57;15.60;99.90
9752;DHT22;4915;51.226;5.966;2022-09-09T05:38:26;15.60;99.90
9752;DHT22;4915;51.226;5.966;2022-09-09T05:40:53;15.60;99.90
9752;DHT22;4915;51.226;5.966;2022-09-09T05:43:21;15.60;99.90
9752;DHT22;4915;51.226;5.966;2022-09-09T05:45:58;15.60;99.90
9752;DHT22;4915;51.226;5.966;2022-09-09T05:48:28;15.70;99.90
9752;DHT22;4915;51.226;5.966;2022-09-09T05:50:55;15.70;99.90
9752;DHT22;4915;51.226;5.966;2022-09-09T05:53:22;15.70;99.90
9752;DHT22;4915;51.226;5.966;2022-09-09T05:55:59;15.70;99.90
9752;DHT22;4915;51.226;5.966;2022-09-09T05:58:26;15.80;99.90
9752;DHT22;4915;51.226;5.966;2022-09-09T06:00:59;15.90;99.90
9752;DHT22;4915;51.226;5.966;2022-09-09T06:03:26;15.90;99.90
9752;DHT22;4915;51.226;5.966;2022-09-09T06:05:57;16.00;99.90
9752;DHT22;4915;51.226;5.966;2022-09-09T06:08:25;16.00;99.90
9752;DHT22;4915;51.226;5.966;2022-09-09T06:11:00;16.10;99.90
9752;DHT22;4915;51.226;5.966;2022-09-09T06:13:28;16.10;99.90
9752;DHT22;4915;51.226;5.966;2022-09-09T06:15:55;16.20;99.90
9752;DHT22;4915;51.226;5.966;2022-09-09T06:18:22;16.20;99.90
9752;DHT22;4915;51.226;5.966;2022-09-09T06:20:57;16.20;99.90
9752;DHT22;4915;51.226;5.966;2022-09-09T06:23:25;16.20;99.90
9752;DHT22;4915;51.226;5.966;2022-09-09T06:26:01;16.30;99.90
9752;DHT22;4915;51.226;5.966;2022-09-09T06:28:28;16.30;99.90
9752;DHT22;4915;51.226;5.966;2022-09-09T06:30:58;16.30;99.90
9752;DHT22;4915;51.226;5.966;2022-09-09T06:33:26;16.50;99.90
9752;DHT22;4915;51.226;5.966;2022-09-09T06:35:53;16.40;99.90
9752;DHT22;4915;51.226;5.966;2022-09-09T06:38:23;16.40;99.90
9752;DHT22;4915;51.226;5.966;2022-09-09T06:40:53;16.40;99.90
9752;DHT22;4915;51.226;5.966;2022-09-09T06:43:23;16.60;99.90
9752;DHT22;4915;51.226;5.966;2022-09-09T06:45:54;16.60;99.90
9752;DHT22;4915;51.226;5.966;2022-09-09T06:48:21;16.70;99.90
9752;DHT22;4915;51.226;5.966;2022-09-09T06:50:48;16.80;99.90
9752;DHT22;4915;51.226;5.966;2022-09-09T06:53:17;16.90;99.90
9752;DHT22;4915;51.226;5.966;2022-09-09T06:55:45;17.00;99.90
9752;DHT22;4915;51.226;5.966;2022-09-09T06:58:12;17.30;99.90
9752;DHT22;4915;51.226;5.966;2022-09-09T07:00:40;17.50;99.90
9752;DHT22;4915;51.226;5.966;2022-09-09T07:03:09;17.70;99.90
9752;DHT22;4915;51.226;5.966;2022-09-09T07:05:36;17.60;99.90
9752;DHT22;4915;51.226;5.966;2022-09-09T07:08:04;17.40;99.90
9752;DHT22;4915;51.226;5.966;2022-09-09T07:10:31;17.30;99.90
9752;DHT22;4915;51.226;5.966;2022-09-09T07:13:00;17.30;99.90
9752;DHT22;4915;51.226;5.966;2022-09-09T07:15:27;17.60;99.90
9752;DHT22;4915;51.226;5.966;2022-09-09T07:18:01;17.70;99.90
9752;DHT22;4915;51.226;5.966;2022-09-09T07:20:28;17.90;99.90
9752;DHT22;4915;51.226;5.966;2022-09-09T07:22:55;18.60;99.90
9752;DHT22;4915;51.226;5.966;2022-09-09T07:25:24;19.00;99.90
9752;DHT22;4915;51.226;5.966;2022-09-09T07:27:52;19.20;99.90
9752;DHT22;4915;51.226;5.966;2022-09-09T07:30:20;19.40;99.90
9752;DHT22;4915;51.226;5.966;2022-09-09T07:32:47;19.70;99.90
9752;DHT22;4915;51.226;5.966;2022-09-09T07:35:16;19.60;99.90
9752;DHT22;4915;51.226;5.966;2022-09-09T07:37:43;19.70;99.90
9752;DHT22;4915;51.226;5.966;2022-09-09T07:40:11;20.00;99.90
9752;DHT22;4915;51.226;5.966;2022-09-09T07:42:38;20.10;99.90
9752;DHT22;4915;51.226;5.966;2022-09-09T07:45:06;20.10;99.90
9752;DHT22;4915;51.226;5.966;2022-09-09T07:47:33;20.20;99.90
9752;DHT22;4915;51.226;5.966;2022-09-09T07:50:00;20.10;99.90
9752;DHT22;4915;51.226;5.966;2022-09-09T07:52:29;20.00;99.90
9752;DHT22;4915;51.226;5.966;2022-09-09T07:54:56;20.10;99.90
9752;DHT22;4915;51.226;5.966;2022-09-09T07:57:23;19.70;99.90
9752;DHT22;4915;51.226;5.966;2022-09-09T07:59:51;19.10;99.90
9752;DHT22;4915;51.226;5.966;2022-09-09T08:02:18;18.40;99.90
9752;DHT22;4915;51.226;5.966;2022-09-09T08:04:45;18.20;99.90
9752;DHT22;4915;51.226;5.966;2022-09-09T08:07:13;18.00;99.90
9752;DHT22;4915;51.226;5.966;2022-09-09T08:09:41;17.90;99.90
9752;DHT22;4915;51.226;5.966;2022-09-09T08:12:09;17.70;99.90
9752;DHT22;4915;51.226;5.966;2022-09-09T08:14:38;17.60;99.90
9752;DHT22;4915;51.226;5.966;2022-09-09T08:17:05;17.60;99.90
9752;DHT22;4915;51.226;5.966;2022-09-09T08:19:33;17.70;99.90
9752;DHT22;4915;51.226;5.966;2022-09-09T08:22:01;17.70;99.90
9752;DHT22;4915;51.226;5.966;2022-09-09T08:24:28;17.70;99.90
9752;DHT22;4915;51.226;5.966;2022-09-09T08:26:57;17.70;99.90
9752;DHT22;4915;51.226;5.966;2022-09-09T08:29:24;17.90;99.90
9752;DHT22;4915;51.226;5.966;2022-09-09T08:31:52;18.00;99.90
9752;DHT22;4915;51.226;5.966;2022-09-09T08:34:20;18.10;99.90
9752;DHT22;4915;51.226;5.966;2022-09-09T08:36:48;18.40;99.90
9752;DHT22;4915;51.226;5.966;2022-09-09T08:39:17;18.70;99.90
9752;DHT22;4915;51.226;5.966;2022-09-09T08:45:04;18.90;99.90
9752;DHT22;4915;51.226;5.966;2022-09-09T08:47:44;19.00;99.90
9752;DHT22;4915;51.226;5.966;2022-09-09T08:50:19;19.00;99.90
9752;DHT22;4915;51.226;5.966;2022-09-09T08:52:54;18.60;99.90
9752;DHT22;4915;51.226;5.966;2022-09-09T08:55:28;18.40;99.90
9752;DHT22;4915;51.226;5.966;2022-09-09T08:57:58;18.40;99.90
9752;DHT22;4915;51.226;5.966;2022-09-09T09:00:36;18.40;99.90
9752;DHT22;4915;51.226;5.966;2022-09-09T09:03:10;18.40;99.90
9752;DHT22;4915;51.226;5.966;2022-09-09T09:05:46;18.50;99.90
9752;DHT22;4915;51.226;5.966;2022-09-09T09:08:20;18.40;99.90
9752;DHT22;4915;51.226;5.966;2022-09-09T09:10:54;18.30;99.90
9752;DHT22;4915;51.226;5.966;2022-09-09T09:13:30;18.20;99.90
9752;DHT22;4915;51.226;5.966;2022-09-09T09:16:10;18.20;99.90
9752;DHT22;4915;51.226;5.966;2022-09-09T09:18:40;18.20;99.90
9752;DHT22;4915;51.226;5.966;2022-09-09T09:21:12;18.10;99.90
9752;DHT22;4915;51.226;5.966;2022-09-09T09:23:45;18.10;99.90
9752;DHT22;4915;51.226;5.966;2022-09-09T09:26:20;18.00;99.90
9752;DHT22;4915;51.226;5.966;2022-09-09T09:28:48;18.00;99.90
9752;DHT22;4915;51.226;5.966;2022-09-09T09:31:18;17.90;99.90
9752;DHT22;4915;51.226;5.966;2022-09-09T09:33:49;17.90;99.90
9752;DHT22;4915;51.226;5.966;2022-09-09T09:36:17;17.80;99.90
9752;DHT22;4915;51.226;5.966;2022-09-09T09:38:56;17.80;99.90
9752;DHT22;4915;51.226;5.966;2022-09-09T09:41:33;17.90;99.90
9752;DHT22;4915;51.226;5.966;2022-09-09T09:44:01;17.90;99.90
9752;DHT22;4915;51.226;5.966;2022-09-09T09:46:31;18.00;99.90
9752;DHT22;4915;51.226;5.966;2022-09-09T09:48:59;18.30;99.90
9752;DHT22;4915;51.226;5.966;2022-09-09T09:51:29;18.40;99.90
9752;DHT22;4915;51.226;5.966;2022-09-09T09:54:17;18.50;99.90
9752;DHT22;4915;51.226;5.966;2022-09-09T09:56:46;18.40;99.90
9752;DHT22;4915;51.226;5.966;2022-09-09T09:59:22;18.40;99.90
9752;DHT22;4915;51.226;5.966;2022-09-09T10:01:51;18.40;99.90
9752;DHT22;4915;51.226;5.966;2022-09-09T10:04:20;18.30;99.90
9752;DHT22;4915;51.226;5.966;2022-09-09T10:06:50;18.30;99.90
9752;DHT22;4915;51.226;5.966;2022-09-09T10:09:24;18.20;99.90
9752;DHT22;4915;51.226;5.966;2022-09-09T10:11:57;18.20;99.90
9752;DHT22;4915;51.226;5.966;2022-09-09T10:14:35;18.30;99.90
9752;DHT22;4915;51.226;5.966;2022-09-09T10:17:16;18.40;99.90
9752;DHT22;4915;51.226;5.966;2022-09-09T10:19:54;18.50;99.90
9752;DHT22;4915;51.226;5.966;2022-09-09T10:22:26;18.40;99.90
9752;DHT22;4915;51.226;5.966;2022-09-09T10:25:17;18.40;99.90
9752;DHT22;4915;51.226;5.966;2022-09-09T10:27:56;18.40;99.90
9752;DHT22;4915;51.226;5.966;2022-09-09T10:30:34;17.80;99.90
9752;DHT22;4915;51.226;5.966;2022-09-09T10:33:09;17.10;99.90
9752;DHT22;4915;51.226;5.966;2022-09-09T10:35:43;16.70;99.90
9752;DHT22;4915;51.226;5.966;2022-09-09T10:38:18;16.50;99.90
9752;DHT22;4915;51.226;5.966;2022-09-09T10:41:05;16.50;99.90
9752;DHT22;4915;51.226;5.966;2022-09-09T10:43:52;16.60;99.90
9752;DHT22;4915;51.226;5.966;2022-09-09T10:46:28;16.90;99.90
9752;DHT22;4915;51.226;5.966;2022-09-09T10:49:10;17.10;99.90
9752;DHT22;4915;51.226;5.966;2022-09-09T10:51:48;17.30;99.90
9752;DHT22;4915;51.226;5.966;2022-09-09T10:54:28;17.40;99.90
9752;DHT22;4915;51.226;5.966;2022-09-09T10:57:03;17.40;99.90
9752;DHT22;4915;51.226;5.966;2022-09-09T10:59:34;17.40;99.90
9752;DHT22;4915;51.226;5.966;2022-09-09T11:02:14;17.30;99.90
9752;DHT22;4915;51.226;5.966;2022-09-09T11:04:48;17.30;99.90
9752;DHT22;4915;51.226;5.966;2022-09-09T11:07:25;17.20;99.90
9752;DHT22;4915;51.226;5.966;2022-09-09T11:10:00;17.20;99.90
9752;DHT22;4915;51.226;5.966;2022-09-09T11:12:30;17.20;99.90
9752;DHT22;4915;51.226;5.966;2022-09-09T11:15:01;17.20;99.90
9752;DHT22;4915;51.226;5.966;2022-09-09T11:17:36;17.20;99.90
9752;DHT22;4915;51.226;5.966;2022-09-09T11:20:11;17.10;99.90
9752;DHT22;4915;51.226;5.966;2022-09-09T11:22:44;17.10;99.90
9752;DHT22;4915;51.226;5.966;2022-09-09T11:25:16;17.10;99.90
9752;DHT22;4915;51.226;5.966;2022-09-09T11:30:38;16.90;99.90
9752;DHT22;4915;51.226;5.966;2022-09-09T11:36:34;16.40;99.90
9752;DHT22;4915;51.226;5.966;2022-09-09T11:39:12;16.30;99.90
9752;DHT22;4915;51.226;5.966;2022-09-09T11:41:46;16.30;99.90
9752;DHT22;4915;51.226;5.966;2022-09-09T11:44:18;16.30;99.90
9752;DHT22;4915;51.226;5.966;2022-09-09T11:46:50;16.50;99.90
9752;DHT22;4915;51.226;5.966;2022-09-09T11:49:27;17.00;99.90
9752;DHT22;4915;51.226;5.966;2022-09-09T11:51:55;17.50;99.90
9752;DHT22;4915;51.226;5.966;2022-09-09T11:54:29;17.70;99.90
9752;DHT22;4915;51.226;5.966;2022-09-09T11:56:57;17.80;99.90
9752;DHT22;4915;51.226;5.966;2022-09-09T11:59:26;17.80;99.90
9752;DHT22;4915;51.226;5.966;2022-09-09T12:01:56;17.80;99.90
9752;DHT22;4915;51.226;5.966;2022-09-09T12:04:36;17.60;99.90
9752;DHT22;4915;51.226;5.966;2022-09-09T12:07:25;17.60;99.90
9752;DHT22;4915;51.226;5.966;2022-09-09T12:09:58;17.50;99.90
9752;DHT22;4915;51.226;5.966;2022-09-09T12:12:29;17.70;99.90
9752;DHT22;4915;51.226;5.966;2022-09-09T12:15:19;18.10;99.90
9752;DHT22;4915;51.226;5.966;2022-09-09T12:17:48;18.40;99.90
9752;DHT22;4915;51.226;5.966;2022-09-09T12:20:18;18.40;99.90
9752;DHT22;4915;51.226;5.966;2022-09-09T12:23:13;18.60;99.90
9752;DHT22;4915;51.226;5.966;2022-09-09T12:25:54;18.60;99.90
9752;DHT22;4915;51.226;5.966;2022-09-09T12:28:31;18.40;99.90
9752;DHT22;4915;51.226;5.966;2022-09-09T12:31:07;18.50;99.90
9752;DHT22;4915;51.226;5.966;2022-09-09T12:33:36;18.30;99.90
9752;DHT22;4915;51.226;5.966;2022-09-09T12:36:07;18.40;99.90
9752;DHT22;4915;51.226;5.966;2022-09-09T12:38:40;18.40;99.90
9752;DHT22;4915;51.226;5.966;2022-09-09T12:41:18;18.30;99.90
9752;DHT22;4915;51.226;5.966;2022-09-09T12:43:46;18.40;99.90
9752;DHT22;4915;51.226;5.966;2022-09-09T12:46:21;18.50;99.90
9752;DHT22;4915;51.226;5.966;2022-09-09T12:48:49;18.60;99.90
9752;DHT22;4915;51.226;5.966;2022-09-09T12:51:20;18.70;99.90
9752;DHT22;4915;51.226;5.966;2022-09-09T12:53:49;18.80;99.90
9752;DHT22;4915;51.226;5.966;2022-09-09T12:56:21;18.80;99.90
9752;DHT22;4915;51.226;5.966;2022-09-09T12:58:50;18.80;99.90
9752;DHT22;4915;51.226;5.966;2022-09-09T13:01:25;18.80;99.90
9752;DHT22;4915;51.226;5.966;2022-09-09T13:03:52;18.80;99.90
9752;DHT22;4915;51.226;5.966;2022-09-09T13:06:22;18.80;99.90
9752;DHT22;4915;51.226;5.966;2022-09-09T13:08:52;18.80;99.90
9752;DHT22;4915;51.226;5.966;2022-09-09T13:11:22;18.80;99.90
9752;DHT22;4915;51.226;5.966;2022-09-09T13:13:51;18.80;99.90
9752;DHT22;4915;51.226;5.966;2022-09-09T13:16:21;18.50;99.90
9752;DHT22;4915;51.226;5.966;2022-09-09T13:18:50;17.90;99.90
9752;DHT22;4915;51.226;5.966;2022-09-09T13:21:17;17.60;99.90
9752;DHT22;4915;51.226;5.966;2022-09-09T13:23:50;17.30;99.90
9752;DHT22;4915;51.226;5.966;2022-09-09T13:26:23;17.10;99.90
9752;DHT22;4915;51.226;5.966;2022-09-09T13:28:52;17.00;99.90
9752;DHT22;4915;51.226;5.966;2022-09-09T13:31:22;16.70;99.90
9752;DHT22;4915;51.226;5.966;2022-09-09T13:33:49;16.60;99.90
9752;DHT22;4915;51.226;5.966;2022-09-09T13:36:28;16.40;99.90
9752;DHT22;4915;51.226;5.966;2022-09-09T13:38:59;16.30;99.90
9752;DHT22;4915;51.226;5.966;2022-09-09T13:41:29;16.20;99.90
9752;DHT22;4915;51.226;5.966;2022-09-09T13:43:58;16.10;99.90
9752;DHT22;4915;51.226;5.966;2022-09-09T13:46:34;16.10;99.90
9752;DHT22;4915;51.226;5.966;2022-09-09T13:49:16;16.10;99.90
9752;DHT22;4915;51.226;5.966;2022-09-09T13:51:47;16.20;99.90
9752;DHT22;4915;51.226;5.966;2022-09-09T13:54:19;16.40;99.90
9752;DHT22;4915;51.226;5.966;2022-09-09T13:56:46;16.40;99.90
9752;DHT22;4915;51.226;5.966;2022-09-09T13:59:17;16.70;99.90
9752;DHT22;4915;51.226;5.966;2022-09-09T14:01:45;17.10;99.90
9752;DHT22;4915;51.226;5.966;2022-09-09T14:04:13;17.20;99.90
9752;DHT22;4915;51.226;5.966;2022-09-09T14:06:41;17.60;99.90
9752;DHT22;4915;51.226;5.966;2022-09-09T14:09:12;18.00;99.90
9752;DHT22;4915;51.226;5.966;2022-09-09T14:11:41;17.90;99.90
9752;DHT22;4915;51.226;5.966;2022-09-09T14:14:08;18.10;99.90
9752;DHT22;4915;51.226;5.966;2022-09-09T14:16:35;18.40;99.90
9752;DHT22;4915;51.226;5.966;2022-09-09T14:19:03;18.40;99.90
9752;DHT22;4915;51.226;5.966;2022-09-09T14:21:31;18.60;99.90
9752;DHT22;4915;51.226;5.966;2022-09-09T14:23:58;18.60;99.90
9752;DHT22;4915;51.226;5.966;2022-09-09T14:26:25;18.70;99.90
9752;DHT22;4915;51.226;5.966;2022-09-09T14:28:56;19.10;99.90
9752;DHT22;4915;51.226;5.966;2022-09-09T14:31:23;19.20;99.90
9752;DHT22;4915;51.226;5.966;2022-09-09T14:33:50;19.40;99.90
9752;DHT22;4915;51.226;5.966;2022-09-09T14:36:18;19.30;99.90
9752;DHT22;4915;51.226;5.966;2022-09-09T14:38:45;19.00;99.90
9752;DHT22;4915;51.226;5.966;2022-09-09T14:41:14;18.80;99.90
9752;DHT22;4915;51.226;5.966;2022-09-09T14:43:43;18.90;99.90
9752;DHT22;4915;51.226;5.966;2022-09-09T14:46:13;19.50;99.90
9752;DHT22;4915;51.226;5.966;2022-09-09T14:48:41;19.60;99.90
9752;DHT22;4915;51.226;5.966;2022-09-09T14:51:11;19.40;99.90
9752;DHT22;4915;51.226;5.966;2022-09-09T14:53:39;19.20;99.90
9752;DHT22;4915;51.226;5.966;2022-09-09T14:56:09;19.00;99.90
9752;DHT22;4915;51.226;5.966;2022-09-09T14:58:37;19.00;99.90
9752;DHT22;4915;51.226;5.966;2022-09-09T15:01:05;19.20;99.90
9752;DHT22;4915;51.226;5.966;2022-09-09T15:03:34;19.80;99.90
9752;DHT22;4915;51.226;5.966;2022-09-09T15:06:07;20.10;99.90
9752;DHT22;4915;51.226;5.966;2022-09-09T15:08:35;20.10;99.90
9752;DHT22;4915;51.226;5.966;2022-09-09T15:11:04;20.00;99.90
9752;DHT22;4915;51.226;5.966;2022-09-09T15:13:32;19.70;99.90
9752;DHT22;4915;51.226;5.966;2022-09-09T15:16:04;19.60;99.90
9752;DHT22;4915;51.226;5.966;2022-09-09T15:18:32;19.60;99.90
9752;DHT22;4915;51.226;5.966;2022-09-09T15:21:00;19.80;99.90
9752;DHT22;4915;51.226;5.966;2022-09-09T15:23:30;19.80;99.90
9752;DHT22;4915;51.226;5.966;2022-09-09T15:25:57;19.80;99.90
9752;DHT22;4915;51.226;5.966;2022-09-09T15:28:25;19.80;99.90
9752;DHT22;4915;51.226;5.966;2022-09-09T15:30:52;19.70;99.90
9752;DHT22;4915;51.226;5.966;2022-09-09T15:33:21;19.60;99.90
9752;DHT22;4915;51.226;5.966;2022-09-09T15:35:48;19.60;99.90
9752;DHT22;4915;51.226;5.966;2022-09-09T15:38:17;19.50;99.90
9752;DHT22;4915;51.226;5.966;2022-09-09T15:40:53;19.40;99.90
9752;DHT22;4915;51.226;5.966;2022-09-09T15:43:21;19.60;99.90
9752;DHT22;4915;51.226;5.966;2022-09-09T15:45:54;19.70;99.90
9752;DHT22;4915;51.226;5.966;2022-09-09T15:48:30;19.70;99.90
9752;DHT22;4915;51.226;5.966;2022-09-09T15:51:02;19.90;99.90
9752;DHT22;4915;51.226;5.966;2022-09-09T15:53:30;19.90;99.90
9752;DHT22;4915;51.226;5.966;2022-09-09T15:55:58;19.80;99.90
9752;DHT22;4915;51.226;5.966;2022-09-09T15:58:29;20.00;99.90
9752;DHT22;4915;51.226;5.966;2022-09-09T16:01:01;20.00;99.90
9752;DHT22;4915;51.226;5.966;2022-09-09T16:03:33;20.00;99.90
9752;DHT22;4915;51.226;5.966;2022-09-09T16:06:00;20.00;99.90
9752;DHT22;4915;51.226;5.966;2022-09-09T16:08:32;20.00;99.90
9752;DHT22;4915;51.226;5.966;2022-09-09T16:11:05;19.90;99.90
9752;DHT22;4915;51.226;5.966;2022-09-09T16:13:33;19.80;99.90
9752;DHT22;4915;51.226;5.966;2022-09-09T16:16:01;19.70;99.90
9752;DHT22;4915;51.226;5.966;2022-09-09T16:18:34;19.60;99.90
9752;DHT22;4915;51.226;5.966;2022-09-09T16:21:01;19.60;99.90
9752;DHT22;4915;51.226;5.966;2022-09-09T16:23:28;19.50;99.90
9752;DHT22;4915;51.226;5.966;2022-09-09T16:25:57;19.50;99.90
9752;DHT22;4915;51.226;5.966;2022-09-09T16:28:24;19.50;99.90
9752;DHT22;4915;51.226;5.966;2022-09-09T16:30:51;19.50;99.90
9752;DHT22;4915;51.226;5.966;2022-09-09T16:33:19;19.50;99.90
9752;DHT22;4915;51.226;5.966;2022-09-09T16:35:46;19.50;99.90